Aviation Digital Data Service (ADDS)

Output produced by TAFs form (2347 UTC 02 September 2014)
found at http://www.aviationweather.gov/adds/tafs/
 
KMRB 022325Z 0300/0324 28004KT P6SM BKN050 BKN200 
     FM030600 VRB03KT 5SM BR SCT050 BKN200 
     FM030900 VRB03KT 2SM BR FEW050 SCT200 
     FM031300 33005KT P6SM FEW050 SCT200 
     FM032100 VRB04KT P6SM FEW050